Aeroporto :
LOGIN :

Iscrizione | Disclaimer

   EN    FR    IT 

 










Sommario :    VFR   VFR Marginale   IFR   IFR Intensivo   IFR Molto Intensivo
Visibilità : 
Base nubi : 
>= 8 km
>= 3000ft
5 / 8 km
1000 / 3000 ft
1500m / 5 km
500 / 1000 ft
800 / 1500m
200 / 500 ft
< 800m
< 200 ft
Simboli :   Temporali  Nebbia  Neve Forte  Precipitazioni Forti  Vento > 20 kt
SIGMETs :   Varie  Temporali  Ghiacco  Turbolenza  Onda orograficha  Ceneri Vulcaniche






- Altitudine del aeroporto : 56 ft
- Codice IATA : BZR


LFMU - Beziers / Vias

ULTIMO METAR :
  • 232030Z AUTO 23004KT CAVOK 07/02 Q1005

METARs OBSOLETI :
  • 232000Z AUTO 25006KT CAVOK 07/02 Q1005 NOSIG
  • 231930Z AUTO 25006KT CAVOK 07/01 Q1005 NOSIG
  • 231900Z AUTO 26007KT 230V290 CAVOK 09/02 Q1005 NOSIG
  • 231830Z AUTO 26007KT 230V290 CAVOK 09/02 Q1004 NOSIG
  • 231800Z AUTO 28013KT CAVOK 09/02 Q1004 NOSIG
  • 231730Z AUTO 29015KT CAVOK 10/02 Q1004 NOSIG
  • 231700Z AUTO 30017KT 9999 FEW046 11/02 Q1004 BECMG 24007KT
  • 231630Z AUTO 29016KT CAVOK 11/02 Q1004 NOSIG
  • 231600Z AUTO 29014KT 250V320 CAVOK 11/02 Q1003 NOSIG

TAF TAF LFMU
Valido dal 23 a 15 ore il 24 a 15 ore UTC


231400Z 2315/2415 28020G35KT 9999 FEW045 SCT050 BKN220
BECMG 2315/2317 28012KT
BECMG 2318/2320 24007KT
BECMG 2411/2413 30012KT
ATIS : +33 4 67 90 88 88



MetMap, La meteo Aeronautica in un colpo d'occhio ! - Copyright ORBIFLY Dicembre 2007 - Disclaimer

ORBIFLY MET'MAP TEAM :

Programmazione e sviluppo : Alexandra Zaïnal
Concezione : Baudouin d'Aumeries
Supporto tecnico e logistico : Manuel Goepfert
Aiuto : Marc-Olivier Méhu
Aiuto per la traduzione : Arnaldo La Scala




FONTI E CREDITI :

   NOAA